ADVERTISEMENT

iOS app on App Store Android app on Google Play

2017 \ Santa Monica - Venice Christmas Run - December 16, 2017

Notes Pages Download Filter By
  1 2 3 [4] 5 6 7 8 9 10 11 12 13 14 15 16




Keyword Exact  
Division

Bib First Name Last Name City Total Time Pace Division Division Place Sex Place Overall
3851 Tatiana Sanchez Temple City 00:29:03 00:09:21 F 30-34 19 115 301
1943 Ben Wendell Los Angeles 00:29:03 00:09:21 M 1-14 20 187 302
1728 Paul Cooney Santa Monica 00:29:04 00:09:22 M 25-29 19 188 303
4588 Daniel Vasquez Oakland 00:29:05 00:09:22 M 35-39 33 189 304
4504 Ally Yu Santa Monica 00:29:07 00:09:23 F 1-14 13 116 305
1994 Samantha Ekwall Redondo Beach 00:29:07 00:09:23 F 30-34 20 117 306
4045 Elia Song Santa Monica 00:29:08 00:09:23 F 1-14 14 118 307
1358 Everett Rolph Santa Monica 00:29:10 00:09:24 M 1-14 21 190 308
2151 Trevor Fraticelli Los Angeles 00:29:10 00:09:24 M 1-14 21 190 308
2046 John Exner Los Angeles 00:29:12 00:09:24 M 35-39 34 192 310
5139 Emerson Hill Santa Monica 00:29:12 00:09:24 M 1-14 23 193 311
635 Indiana Guckert Santa Monica 00:29:13 00:09:24 F 1-14 15 119 312
637 Jeffrey Guckert Santa Monica 00:29:14 00:09:25 M 50-54 16 194 313
3875 Kristina Schaefer Venice 00:29:15 00:09:25 F 25-29 13 120 315
1355 Duncan Rolph Santa Monica 00:29:15 00:09:25 M 40-44 19 195 314
520 Liv Kreiswirth Hawthorne 00:29:16 00:09:26 F 1-14 16 121 316
1975 Kay Eckert West Covina 00:29:17 00:09:26 F 55-59 10 122 317
5124 Brianna Trafton Santa Monica 00:29:17 00:09:26 F 20-24 7 123 318
1216 Ashley Andrews Porter Ranch 00:29:19 00:09:26 F 30-34 21 124 320
2565 Leonard Imada Los Angeles 00:29:19 00:09:26 M 65-69 3 196 319
2398 Stephan Harvey Los Angeles 00:29:22 00:09:27 M 20-24 14 197 321
538 Omalina Wolfe Venice 00:29:23 00:09:28 F 1-14 17 125 322
2057 Phyllis Fang Santa Monica 00:29:23 00:09:28 F 25-29 14 126 323
137 Jack Coven Santa Monica 00:29:24 00:09:28 M 1-14 24 198 324
1625 Andrea Chang Los Angeles 00:29:26 00:09:29 F 30-34 22 127 325
2055 Brett Fallentine Marina Del Rey 00:29:26 00:09:29 M 35-39 35 199 326
2786 Frank Kovacs Los Angeles 00:29:27 00:09:29 M 55-59 16 200 327
3783 Peter Rosenbloom Ladera Ranch 00:29:29 00:09:30 M 60-64 10 201 329
2031 Kristin Esposito Venice 00:29:29 00:09:30 F 35-39 10 129 330
1115 Catharine Stuart Los Angeles 00:29:29 00:09:30 F 30-34 23 128 328
3918 Ana Serrano Covina 00:29:30 00:09:30 F 35-39 11 130 331
3804 Remington Runyan Malibu 00:29:31 00:09:30 M 1-14 25 202 332
537 Thea Mercouffer Venice 00:29:33 00:09:31 F 50-54 9 131 333
109 Tyler Bloomfield Santa Monica 00:29:33 00:09:31 M 1-14 26 203 334
4643 Eric Lees Culver City 00:29:36 00:09:32 M 40-44 20 204 336
2732 Janae Kim Culver City 00:29:36 00:09:32 F 30-34 24 134 338
3013 Brenda Lytell Westlake Village 00:29:36 00:09:32 F 50-54 10 132 335
1061 Martie Mckinney Santa Monica 00:29:36 00:09:32 F 50-54 11 133 337
1145 Fati Adeli Pacific Palisades 00:29:36 00:09:32 F 45-49 12 135 339
1921 Jennifer Donovan Venice 00:29:37 00:09:32 F 35-39 12 136 340
4646 Lucas Morgan Venice 00:29:39 00:09:33 M 15-19 8 205 341
3033 Kathy Malaske-samu Sylmar 00:29:41 00:09:34 F 65-69 1 137 342
1852 Kaare Wagner Santa Monica 00:29:41 00:09:34 M 35-39 36 206 343
2043 Brett Ewing Santa Monica 00:29:43 00:09:34 F 35-39 13 138 344
3531 Caron Pelletier Santa Monica 00:29:44 00:09:35 F 35-39 14 139 345
754 Chandra Kincaid Harbor City 00:29:44 00:09:35 F 50-54 12 140 346
2449 Gustavo Hernandez Northridge 00:29:45 00:09:35 M 25-29 20 207 347
3073 Anne Marso Santa Monica 00:29:47 00:09:35 F 55-59 11 141 348
1476 Richard Brisacher Los Angeles 00:29:48 00:09:36 M 50-54 17 208 349
357 Chris Rivard Sherman Oaks 00:29:49 00:09:36 M 30-34 24 209 350
3726 Vanessa Rivas Los Angeles 00:29:50 00:09:36 F 25-29 15 142 351
435 Brandy Reese La Canada Flintridge 00:29:50 00:09:36 F 40-44 18 143 352
2318 Caleb Gregory Los Angeles 00:29:52 00:09:37 M 1-14 27 212 355
219 Robert Bernacchi Santa Monica 00:29:52 00:09:37 M 50-54 18 211 354
366 Laurent Combredet Venice 00:29:52 00:09:37 M 45-49 15 210 353
4626 Mark Gustafson Los Angeles 00:29:54 00:09:38 M 30-34 25 213 356
4313 Dely Vatani La Habra 00:29:55 00:09:38 F 35-39 15 144 357
2320 Gary Gregory Los Angeles 00:29:56 00:09:39 M 45-49 16 215 359
4568 Justin Neubauer Santa Monica 00:29:56 00:09:38 M 40-44 21 214 358
774 Jason Lam Los Angeles 00:29:57 00:09:39 M 25-29 22 217 362
1717 Bethann Stenseth Santa Monica 00:29:57 00:09:39 F 30-34 25 145 360
3218 Sean Mikuriya San Pedro 00:29:57 00:09:39 M 25-29 21 216 361
4572 Hilary Peterson Santa Monica 00:29:58 00:09:39 F 35-39 16 146 363
3545 Maricela Perez-douglas Santa Monica 00:29:58 00:09:39 F 40-44 19 147 364
2875 Dorothy Lee Los Angeles 00:30:00 00:09:40 F 35-39 17 148 365
3547 Josh Perkins Los Angeles 00:30:00 00:09:40 M 40-44 22 218 366
1492 Jayne Brown El Segundo 00:30:02 00:09:40 F 50-54 13 149 367
312 Jessica Sanchez Santa Monica 00:30:02 00:09:40 F 30-34 26 150 368
1997 Craig Elder El Segundo 00:30:05 00:09:41 M 55-59 17 219 369
182 Emily Wheeler Venice 00:30:05 00:09:41 F 20-24 8 151 370
3615 Lara Pranger Los Angeles 00:30:06 00:09:42 F 45-49 13 152 371
3904 David Schwartz Manhattan Beach 00:30:07 00:09:42 M 45-49 17 220 372
1445 Samantha Brackett Manhattan Beach 00:30:08 00:09:42 F 25-29 16 153 373
4661 Justin Rezvani Venice 00:30:09 00:09:43 M 25-29 23 221 374
1340 Megan Beatty Santa Monica 00:30:10 00:09:43 F 30-34 27 154 375
1016 Darlene Litam Los Angeles 00:30:13 00:09:44 F 35-39 18 155 376
1012 Vanessa Deleon Glendale 00:30:16 00:09:45 F 30-34 28 156 377
3797 Wes Ru Carpinteria 00:30:16 00:09:45 M 60-64 11 222 378
1201 Avery Anderson Santa Monica 00:30:18 00:09:46 F 25-29 18 158 380
3790 Leah Rotti Culver City 00:30:18 00:09:45 F 25-29 17 157 379
287 Sasan Truth Pacific Palisades 00:30:18 00:09:46 M 30-34 26 223 381
1947 Philippa Drennan Los Angeles 00:30:20 00:09:46 F 55-59 12 159 382
2798 Vsevolod Krawczeniuk Burbank 00:30:21 00:09:46 M 55-59 18 224 383
657 Fred Marlow Thousand Oaks 00:30:22 00:09:47 M 50-54 19 225 384
286 Viktorija Ogureckaja Santa Monica 00:30:22 00:09:47 F 35-39 19 160 386
3686 Tony Rescigno Venice 00:30:22 00:09:47 M 20-24 15 226 385
3208 Brian Meyers Los Angeles 00:30:23 00:09:47 M 35-39 37 227 387
4290 Catherine Vallejo Laguna Niguel 00:30:24 00:09:47 F 55-59 13 161 388
395 Ande Daly Santa Monica 00:30:24 00:09:47 F 1-14 18 163 390
2173 Tera Gabriel Santa Monica 00:30:24 00:09:47 F 35-39 20 161 388
394 Amy Daly Santa Monica 00:30:25 00:09:48 F 40-44 20 164 391
2790 Galen Kozicki Santa Monica 00:30:25 00:09:48 M 1-14 28 228 392
3327 Jessie Nava Los Angeles 00:30:26 00:09:48 M 40-44 23 229 394
2791 Jennifer Kozicki Santa Monica 00:30:26 00:09:48 F 40-44 21 165 393
3583 Rebecca Pitts Venice 00:30:29 00:09:49 F 35-39 21 166 395
645 Gary Davis Camarillo 00:30:30 00:09:49 M 65-69 4 230 396
525 Veronica Ramirez Venice 00:30:33 00:09:50 M 35-39 38 231 397
519 Jackie Elias Los Angeles 00:30:33 00:09:50 F 35-39 22 167 398
1935 Peter Downey Los Angeles 00:30:34 00:09:51 M 30-34 27 232 399
1936 Somi Downey Los Angeles 00:30:36 00:09:51 F 35-39 23 168 400
Notes Pages Download Filter By
  1 2 3 [4] 5 6 7 8 9 10 11 12 13 14 15




Keyword Exact  
Division

Bib First Name Last Name City Total Time Pace Division Division Place Sex Place Overall
2283 Susannah Gordon Pacific Palisades 00:52:46 00:08:30 F 45-49 8 91 300
808 Peter Gaytan Valencia 00:52:47 00:08:30 M 15-19 10 210 302
1561 Lynette Caraway Santa Monica 00:52:48 00:08:30 F 55-59 4 93 303
22 Elizabeth Wilson Los Angeles 00:52:49 00:08:30 F 30-34 17 94 304
1273 Mary Bacaj Santa Monica 00:52:50 00:08:31 F 35-39 14 95 305
17 Juana Leal Los Angeles 00:52:51 00:08:31 F 45-49 9 96 307
89 Sebastien Aussal Santa Monica 00:52:51 00:08:31 M 35-39 43 211 306
1430 Chris Boone 00:52:55 00:08:31 M 30-34 42 212 308
115 Brianna Castillo Los Angeles 00:52:56 00:08:32 F 25-29 21 97 309
2686 Douglas Kasper Pomona 00:52:58 00:08:32 M 45-49 25 213 310
2259 Rebecca Gold Portland 00:52:59 00:08:32 F 30-34 18 98 311
1508 Ali Bunduka Redondo Beach 00:52:59 00:08:32 M 45-49 26 214 312
1721 James Conway Los Angeles 00:53:01 00:08:32 M 40-44 26 215 313
4138 Jonathan Sumilang Santa Monica 00:53:03 00:08:33 M 40-44 27 216 314
4307 Marcia Varez Playa Vista 00:53:05 00:08:33 F 40-44 21 100 316
2727 Caitlin Killeavy Los Angeles 00:53:05 00:08:33 F 30-34 19 99 315
2258 Charles Gold Calabasas 00:53:06 00:08:33 M 60-64 7 218 318
815 Waytt Hoglo Valencia 00:53:06 00:08:33 M 15-19 11 217 317
2444 Jeffrey Herman Canyon Country 00:53:08 00:08:33 M 40-44 28 219 319
3362 Ashley Nickel Marina Del Rey 00:53:10 00:08:34 F 30-34 20 101 320
2599 Saul Janson Venice 00:53:11 00:08:34 M 55-59 12 220 321
5092 Patrick McConnell Santa Monica 00:53:14 00:08:34 M 35-39 44 221 322
4355 Kim Waldauer Los Angeles 00:53:16 00:08:35 F 45-49 10 102 323
104 Jose Gonzalez Los Angeles 00:53:19 00:08:35 M 35-39 45 222 324
783 Scot Norred Santa Monica 00:53:24 00:08:36 M 40-44 29 223 325
782 Mary-katherine Harr Santa Monica 00:53:24 00:08:36 F 30-34 21 103 326
1929 Terri Lynn Doubet Burbank 00:53:26 00:08:36 F 50-54 5 105 328
753 Elizabeth Kim Santa Monica 00:53:26 00:08:36 F 25-29 22 104 327
532 Timothy Berman Santa Monica 00:53:27 00:08:37 M 30-34 43 224 330
393 Irma Catalan Los Angeles 00:53:27 00:08:36 F 55-59 5 106 329
799 Jonathan De La Paz Valencia 00:53:28 00:08:37 M 15-19 12 225 331
2188 Karla Garcia Riverside 00:53:30 00:08:37 F 35-39 15 107 333
2576 Manny Isarraras Canoga Park 00:53:30 00:08:37 M 30-34 44 226 332
1603 Jill Smith Marina Del Rey 00:53:31 00:08:37 F 45-49 11 108 334
1164 Annie Albertson Los Angeles 00:53:32 00:08:37 F 35-39 16 109 335
2844 Kara Lankey La Canada Flintridge 00:53:34 00:08:38 F 20-24 6 110 336
2837 Linda Lamendola Santa Monica 00:53:36 00:08:38 F 40-44 22 111 337
124 Christie Armstrong Santa Monica 00:53:36 00:08:38 F 25-29 23 112 338
4026 Ed Snider Santa Monica 00:53:38 00:08:38 M 45-49 27 228 340
1610 Wilson Jao Tan Cembrano Alhambra 00:53:38 00:08:38 M 40-44 30 227 339
172 Nicko Keene Beverly Hills 00:53:40 00:08:39 M 25-29 19 229 341
370 Dena Alessi Santa Monica 00:53:42 00:08:39 F 30-34 22 113 342
1458 Liane Brantingham Culver City 00:53:43 00:08:39 F 45-49 12 114 343
3831 Joseph Saldana Long Beach 00:53:45 00:08:39 M 40-44 31 230 344
575 Leslie Gold Rancho Palos Verdes 00:53:48 00:08:40 F 55-59 6 115 345
3930 James Shanks Burbank 00:53:49 00:08:40 M 65-69 4 231 346
2007 Tyler Ence Los Angeles 00:53:49 00:08:40 M 35-39 46 232 347
859 Jonathan Lieberman Los Angeles 00:53:50 00:08:40 M 30-34 45 233 348
4581 William Tarng Torrance 00:53:51 00:08:40 M 40-44 32 234 349
3824 Jesse Sacks Malibu 00:53:51 00:08:40 M 25-29 20 235 350
1723 Michael Steyrer Santa Monica 00:53:52 00:08:41 M 30-34 46 236 351
1863 Matthew Dempsey Marina Del Rey 00:53:59 00:08:42 M 20-24 6 237 352
4652 Homer Parkes Los Angeles 00:54:00 00:08:42 M 30-34 47 238 353
2062 Marvin Zeman Carbondale 00:54:05 00:08:43 M 70-74 1 239 354
1542 Victor Calderon Canoga Park 00:54:07 00:08:43 M 50-54 22 241 356
797 Luis Corona Valencia 00:54:07 00:08:43 M 15-19 13 240 355
589 Elizabeth Connolly Long Beach 00:54:09 00:08:43 F 25-29 24 116 357
830 Kevin Sarkissian Valencia 00:54:11 00:08:44 M 50-54 23 242 358
410 Jill David Manhattan Beach 00:54:14 00:08:44 F 35-39 17 117 359
2425 Levi Heath Los Angeles 00:54:16 00:08:44 M 40-44 33 243 362
700 Veronica Pineda Valencia 00:54:16 00:08:44 F 50-54 6 119 361
985 Heather Kirsten Pasadena 00:54:16 00:08:44 F 45-49 13 118 360
989 Charles Malaret Los Angeles 00:54:17 00:08:45 M 50-54 24 244 363
2663 Anita Kallepalli Los Angeles 00:54:19 00:08:45 F 30-34 23 121 365
3500 Vicki Parker Santa Monica 00:54:19 00:08:45 F 35-39 18 120 364
4322 Jasmin Velasquez Whittier 00:54:24 00:08:46 F 25-29 25 122 366
408 Dave Meinert Venice 00:54:25 00:08:46 M 35-39 47 246 368
2820 Phillip Kwan Culver City 00:54:25 00:08:46 M 50-54 25 245 367
3967 Michelle Sikora Santa Monica 00:54:28 00:08:46 F 45-49 14 124 370
400 Caroline Crow West Hollywood 00:54:28 00:08:46 F 25-29 26 123 369
2857 Eric Lauritsen Los Angeles 00:54:29 00:08:47 M 30-34 48 247 371
2288 Alan Gottlieb Los Angeles 00:54:30 00:08:47 M 60-64 8 248 372
4542 Chloe Dautch Los Angeles 00:54:30 00:08:47 F 25-29 27 125 373
4360 Peter Wallace 00:54:35 00:08:47 M 55-59 13 249 374
4628 Yoshio Hasegawa Los Angeles 00:54:38 00:08:48 M 60-64 9 251 376
792 Alexis Cabrera Valencia 00:54:38 00:08:48 M 15-19 14 250 375
921 Jason Grant Beverly Hills 00:54:38 00:08:48 M 30-34 49 252 377
1605 Katie Cavallaro Santa Monica 00:54:44 00:08:49 F 35-39 19 126 378
2059 Heather Farone Los Angeles 00:54:47 00:08:49 F 25-29 28 127 379
3139 Rachel Mcfarland Santa Monica 00:54:48 00:08:50 F 35-39 20 128 380
3640 Micah Raff Woodland Hills 00:54:52 00:08:50 M 30-34 50 253 381
1758 Naomi Thomas Venice 00:54:55 00:08:51 F 25-29 29 129 382
2564 Kathryn Ikenberry Santa Monica 00:54:56 00:08:51 F 25-29 30 130 384
1149 Ben Nicholson Manhattan Beach 00:54:56 00:08:51 M 1-14 5 254 383
3938 Annelise Shaw Santa Monica 00:55:00 00:08:51 F 55-59 7 131 385
2557 Jasmine Icasiano Lakewood 00:55:01 00:08:52 F 35-39 21 132 386
1535 Jennifer Cahill Marina Del Rey 00:55:02 00:08:52 F 35-39 22 133 387
1457 Jeff Brantingham Culver City 00:55:10 00:08:53 M 45-49 28 255 388
227 Jeff Stenroos Valencia 00:55:10 00:08:53 M 35-39 48 256 389
3596 Chad Porter Los Angeles 00:55:11 00:08:53 M 30-34 51 257 390
1202 Burke Anderson North Hollywood 00:55:13 00:08:54 M 50-54 26 258 391
2691 Lana Katzmann Porter Ranch 00:55:16 00:08:54 F 45-49 15 134 392
3730 Rick Rivera Long Beach 00:55:17 00:08:54 M 35-39 49 259 393
411 Kathleen Oconnell Santa Monica 00:55:21 00:08:55 F 30-34 24 135 394
3725 Taylor Ritzel Los Angeles 00:55:22 00:08:55 F 25-29 31 136 395
1000 Alexander Mann Burbank 00:55:23 00:08:55 M 30-34 52 260 396
2648 Lauren Judd Culver City 00:55:25 00:08:56 F 30-34 25 137 397
2768 Gunnar Kohl Pacific Palisades 00:55:27 00:08:56 M 25-29 21 261 398
2265 Mark Goldstein Redondo Beach 00:55:28 00:08:56 M 50-54 27 262 399
4294 Tammy Van Fountain Valley 00:55:35 00:08:57 F 25-29 32 138 400